Swanley, United Kingdom
Current Conditions -  °F | °C
As of 7:20 PM on Friday 21 Nov 2014 (Local Time) from EGKB Reporting Station
Haze Haze  
Wind Chill:   Ceiling: 500
Heat Index:   Visibility: 1.5mi
Dew Point:   Wind: 10mph
Humidity: 87%   Direction: 130°SE
Pressure: 29.94"   Gusts: NA
Location:  51.39°N, 0.18°E
Report Text: EGKB 211920Z 13009KT 2500 HZ BKN005 08/06 Q1014
Loading
Personal Weather Stations






























Interactive Weather Map New forecast layout! Learn more

10-Day Weather Forecast

Advertisements
Track Severe Weather on mobile